sensor_id;sensor_type;location;lat;lon;timestamp;temperature;humidity
2327;DHT22;1174;51.588;7.328;2023-03-11T00:00:06;2.20;99.90
2327;DHT22;1174;51.588;7.328;2023-03-11T00:02:38;2.10;99.90
2327;DHT22;1174;51.588;7.328;2023-03-11T00:05:06;2.10;99.90
2327;DHT22;1174;51.588;7.328;2023-03-11T00:07:33;2.10;99.90
2327;DHT22;1174;51.588;7.328;2023-03-11T00:10:02;2.10;99.90
2327;DHT22;1174;51.588;7.328;2023-03-11T00:12:31;2.20;99.90
2327;DHT22;1174;51.588;7.328;2023-03-11T00:14:58;2.20;99.90
2327;DHT22;1174;51.588;7.328;2023-03-11T00:17:25;2.20;99.90
2327;DHT22;1174;51.588;7.328;2023-03-11T00:19:52;2.20;99.90
2327;DHT22;1174;51.588;7.328;2023-03-11T00:22:19;2.30;99.90
2327;DHT22;1174;51.588;7.328;2023-03-11T00:24:46;2.30;99.90
2327;DHT22;1174;51.588;7.328;2023-03-11T00:27:13;2.20;99.90
2327;DHT22;1174;51.588;7.328;2023-03-11T00:29:41;2.30;99.90
2327;DHT22;1174;51.588;7.328;2023-03-11T00:32:08;2.30;99.90
2327;DHT22;1174;51.588;7.328;2023-03-11T00:34:35;2.20;99.90
2327;DHT22;1174;51.588;7.328;2023-03-11T00:37:02;2.20;99.90
2327;DHT22;1174;51.588;7.328;2023-03-11T00:39:29;2.20;99.90
2327;DHT22;1174;51.588;7.328;2023-03-11T00:41:56;2.20;99.90
2327;DHT22;1174;51.588;7.328;2023-03-11T00:44:23;2.20;99.90
2327;DHT22;1174;51.588;7.328;2023-03-11T00:46:51;2.20;99.90
2327;DHT22;1174;51.588;7.328;2023-03-11T00:49:18;2.10;99.90
2327;DHT22;1174;51.588;7.328;2023-03-11T00:51:45;2.20;99.90
2327;DHT22;1174;51.588;7.328;2023-03-11T00:54:12;2.20;99.90
2327;DHT22;1174;51.588;7.328;2023-03-11T00:56:39;2.30;99.90
2327;DHT22;1174;51.588;7.328;2023-03-11T00:59:08;2.30;99.90
2327;DHT22;1174;51.588;7.328;2023-03-11T01:01:35;2.20;99.90
2327;DHT22;1174;51.588;7.328;2023-03-11T01:04:04;2.20;99.90
2327;DHT22;1174;51.588;7.328;2023-03-11T01:06:31;2.10;99.90
2327;DHT22;1174;51.588;7.328;2023-03-11T01:08:58;2.10;99.90
2327;DHT22;1174;51.588;7.328;2023-03-11T01:11:25;2.20;99.90
2327;DHT22;1174;51.588;7.328;2023-03-11T01:13:52;2.20;99.90
2327;DHT22;1174;51.588;7.328;2023-03-11T01:16:19;2.20;99.90
2327;DHT22;1174;51.588;7.328;2023-03-11T01:18:46;2.20;99.90
2327;DHT22;1174;51.588;7.328;2023-03-11T01:21:17;2.10;99.90
2327;DHT22;1174;51.588;7.328;2023-03-11T01:23:46;2.10;99.90
2327;DHT22;1174;51.588;7.328;2023-03-11T01:26:12;2.10;99.90
2327;DHT22;1174;51.588;7.328;2023-03-11T01:28:40;2.20;99.90
2327;DHT22;1174;51.588;7.328;2023-03-11T01:31:08;2.20;99.90
2327;DHT22;1174;51.588;7.328;2023-03-11T01:33:35;2.20;99.90
2327;DHT22;1174;51.588;7.328;2023-03-11T01:36:03;2.20;99.90
2327;DHT22;1174;51.588;7.328;2023-03-11T01:38:31;2.30;99.90
2327;DHT22;1174;51.588;7.328;2023-03-11T01:40:58;2.30;99.90
2327;DHT22;1174;51.588;7.328;2023-03-11T01:43:48;2.30;99.90
2327;DHT22;1174;51.588;7.328;2023-03-11T01:46:17;2.40;99.90
2327;DHT22;1174;51.588;7.328;2023-03-11T01:48:47;2.40;99.90
2327;DHT22;1174;51.588;7.328;2023-03-11T01:51:15;2.20;99.90
2327;DHT22;1174;51.588;7.328;2023-03-11T01:53:44;2.20;99.90
2327;DHT22;1174;51.588;7.328;2023-03-11T01:56:12;2.20;99.90
2327;DHT22;1174;51.588;7.328;2023-03-11T01:58:42;2.20;99.90
2327;DHT22;1174;51.588;7.328;2023-03-11T02:01:11;2.20;99.90
2327;DHT22;1174;51.588;7.328;2023-03-11T02:03:40;2.20;99.90
2327;DHT22;1174;51.588;7.328;2023-03-11T02:06:10;2.30;99.90
2327;DHT22;1174;51.588;7.328;2023-03-11T02:08:38;2.30;99.90
2327;DHT22;1174;51.588;7.328;2023-03-11T02:11:10;2.50;99.90
2327;DHT22;1174;51.588;7.328;2023-03-11T02:13:38;2.40;99.90
2327;DHT22;1174;51.588;7.328;2023-03-11T02:16:06;2.40;99.90
2327;DHT22;1174;51.588;7.328;2023-03-11T02:18:33;2.50;99.90
2327;DHT22;1174;51.588;7.328;2023-03-11T02:21:07;2.50;99.90
2327;DHT22;1174;51.588;7.328;2023-03-11T02:23:46;2.40;99.90
2327;DHT22;1174;51.588;7.328;2023-03-11T02:26:20;2.40;99.90
2327;DHT22;1174;51.588;7.328;2023-03-11T02:28:49;2.50;99.90
2327;DHT22;1174;51.588;7.328;2023-03-11T02:31:17;2.50;99.90
2327;DHT22;1174;51.588;7.328;2023-03-11T02:33:46;2.40;99.90
2327;DHT22;1174;51.588;7.328;2023-03-11T02:36:35;2.20;99.90
2327;DHT22;1174;51.588;7.328;2023-03-11T02:39:03;2.10;99.90
2327;DHT22;1174;51.588;7.328;2023-03-11T02:41:31;2.00;99.90
2327;DHT22;1174;51.588;7.328;2023-03-11T02:44:00;2.00;99.90
2327;DHT22;1174;51.588;7.328;2023-03-11T02:46:28;2.00;99.90
2327;DHT22;1174;51.588;7.328;2023-03-11T02:48:55;1.90;99.90
2327;DHT22;1174;51.588;7.328;2023-03-11T02:51:23;1.90;99.90
2327;DHT22;1174;51.588;7.328;2023-03-11T02:53:53;1.90;99.90
2327;DHT22;1174;51.588;7.328;2023-03-11T02:56:20;1.80;99.90
2327;DHT22;1174;51.588;7.328;2023-03-11T02:58:47;1.90;99.90
2327;DHT22;1174;51.588;7.328;2023-03-11T03:01:16;2.00;99.90
2327;DHT22;1174;51.588;7.328;2023-03-11T03:03:42;2.10;99.90
2327;DHT22;1174;51.588;7.328;2023-03-11T03:06:09;2.10;99.90
2327;DHT22;1174;51.588;7.328;2023-03-11T03:08:36;2.10;99.90
2327;DHT22;1174;51.588;7.328;2023-03-11T03:11:03;2.00;99.90
2327;DHT22;1174;51.588;7.328;2023-03-11T03:13:30;2.00;99.90
2327;DHT22;1174;51.588;7.328;2023-03-11T03:15:58;2.00;99.90
2327;DHT22;1174;51.588;7.328;2023-03-11T03:18:27;2.10;99.90
2327;DHT22;1174;51.588;7.328;2023-03-11T03:20:54;2.10;99.90
2327;DHT22;1174;51.588;7.328;2023-03-11T03:23:21;2.10;99.90
2327;DHT22;1174;51.588;7.328;2023-03-11T03:25:48;2.10;99.90
2327;DHT22;1174;51.588;7.328;2023-03-11T03:28:15;2.10;99.90
2327;DHT22;1174;51.588;7.328;2023-03-11T03:30:42;2.10;99.90
2327;DHT22;1174;51.588;7.328;2023-03-11T03:33:09;2.00;99.90
2327;DHT22;1174;51.588;7.328;2023-03-11T03:35:41;2.10;99.90
2327;DHT22;1174;51.588;7.328;2023-03-11T03:38:08;2.20;99.90
2327;DHT22;1174;51.588;7.328;2023-03-11T03:40:35;2.10;99.90
2327;DHT22;1174;51.588;7.328;2023-03-11T03:43:02;2.10;99.90
2327;DHT22;1174;51.588;7.328;2023-03-11T03:45:29;2.20;99.90
2327;DHT22;1174;51.588;7.328;2023-03-11T03:47:56;2.20;99.90
2327;DHT22;1174;51.588;7.328;2023-03-11T03:50:23;2.20;99.90
2327;DHT22;1174;51.588;7.328;2023-03-11T03:52:51;2.30;99.90
2327;DHT22;1174;51.588;7.328;2023-03-11T03:55:18;2.20;99.90
2327;DHT22;1174;51.588;7.328;2023-03-11T03:57:45;2.30;99.90
2327;DHT22;1174;51.588;7.328;2023-03-11T04:00:13;2.40;99.90
2327;DHT22;1174;51.588;7.328;2023-03-11T04:02:40;2.40;99.90
2327;DHT22;1174;51.588;7.328;2023-03-11T04:05:08;2.40;99.90
2327;DHT22;1174;51.588;7.328;2023-03-11T04:07:36;2.40;99.90
2327;DHT22;1174;51.588;7.328;2023-03-11T04:10:05;2.40;99.90
2327;DHT22;1174;51.588;7.328;2023-03-11T04:12:33;2.30;99.90
2327;DHT22;1174;51.588;7.328;2023-03-11T04:15:00;2.40;99.90
2327;DHT22;1174;51.588;7.328;2023-03-11T04:17:26;2.40;99.90
2327;DHT22;1174;51.588;7.328;2023-03-11T04:19:53;2.40;99.90
2327;DHT22;1174;51.588;7.328;2023-03-11T04:22:20;2.50;99.90
2327;DHT22;1174;51.588;7.328;2023-03-11T04:24:47;2.40;99.90
2327;DHT22;1174;51.588;7.328;2023-03-11T04:27:15;2.50;99.90
2327;DHT22;1174;51.588;7.328;2023-03-11T04:29:42;2.40;99.90
2327;DHT22;1174;51.588;7.328;2023-03-11T04:32:09;2.40;99.90
2327;DHT22;1174;51.588;7.328;2023-03-11T04:34:37;2.30;99.90
2327;DHT22;1174;51.588;7.328;2023-03-11T04:37:05;2.30;99.90
2327;DHT22;1174;51.588;7.328;2023-03-11T04:39:32;2.30;99.90
2327;DHT22;1174;51.588;7.328;2023-03-11T04:41:59;2.50;99.90
2327;DHT22;1174;51.588;7.328;2023-03-11T04:44:27;2.40;99.90
2327;DHT22;1174;51.588;7.328;2023-03-11T04:46:54;2.50;99.90
2327;DHT22;1174;51.588;7.328;2023-03-11T04:49:21;2.60;99.90
2327;DHT22;1174;51.588;7.328;2023-03-11T04:51:48;2.60;99.90
2327;DHT22;1174;51.588;7.328;2023-03-11T04:54:14;2.60;99.90
2327;DHT22;1174;51.588;7.328;2023-03-11T04:56:41;2.50;99.90
2327;DHT22;1174;51.588;7.328;2023-03-11T04:59:08;2.50;99.90
2327;DHT22;1174;51.588;7.328;2023-03-11T05:01:38;2.50;99.90
2327;DHT22;1174;51.588;7.328;2023-03-11T05:04:07;2.40;99.90
2327;DHT22;1174;51.588;7.328;2023-03-11T05:06:35;2.30;99.90
2327;DHT22;1174;51.588;7.328;2023-03-11T05:09:02;2.20;99.90
2327;DHT22;1174;51.588;7.328;2023-03-11T05:11:29;2.10;99.90
2327;DHT22;1174;51.588;7.328;2023-03-11T05:13:56;2.20;99.90
2327;DHT22;1174;51.588;7.328;2023-03-11T05:16:23;2.20;99.90
2327;DHT22;1174;51.588;7.328;2023-03-11T05:18:51;2.20;99.90
2327;DHT22;1174;51.588;7.328;2023-03-11T05:21:18;2.20;99.90
2327;DHT22;1174;51.588;7.328;2023-03-11T05:23:45;2.10;99.90
2327;DHT22;1174;51.588;7.328;2023-03-11T05:26:12;2.10;99.90
2327;DHT22;1174;51.588;7.328;2023-03-11T05:28:39;2.10;99.90
2327;DHT22;1174;51.588;7.328;2023-03-11T05:31:07;2.10;99.90
2327;DHT22;1174;51.588;7.328;2023-03-11T05:33:34;2.10;99.90
2327;DHT22;1174;51.588;7.328;2023-03-11T05:36:08;2.10;99.90
2327;DHT22;1174;51.588;7.328;2023-03-11T05:38:35;2.10;99.90
2327;DHT22;1174;51.588;7.328;2023-03-11T05:41:03;2.10;99.90
2327;DHT22;1174;51.588;7.328;2023-03-11T05:43:30;2.10;99.90
2327;DHT22;1174;51.588;7.328;2023-03-11T05:45:57;2.00;99.90
2327;DHT22;1174;51.588;7.328;2023-03-11T05:48:24;2.00;99.90
2327;DHT22;1174;51.588;7.328;2023-03-11T05:50:51;2.10;99.90
2327;DHT22;1174;51.588;7.328;2023-03-11T05:53:19;2.00;99.90
2327;DHT22;1174;51.588;7.328;2023-03-11T05:55:55;2.00;99.90
2327;DHT22;1174;51.588;7.328;2023-03-11T05:58:24;2.10;99.90
2327;DHT22;1174;51.588;7.328;2023-03-11T06:00:51;2.20;99.90
2327;DHT22;1174;51.588;7.328;2023-03-11T06:03:18;2.20;99.90
2327;DHT22;1174;51.588;7.328;2023-03-11T06:05:46;2.20;99.90
2327;DHT22;1174;51.588;7.328;2023-03-11T06:08:16;2.20;99.90
2327;DHT22;1174;51.588;7.328;2023-03-11T06:10:45;2.20;99.90
2327;DHT22;1174;51.588;7.328;2023-03-11T06:13:12;2.30;99.90
2327;DHT22;1174;51.588;7.328;2023-03-11T06:15:39;2.30;99.90
2327;DHT22;1174;51.588;7.328;2023-03-11T06:18:06;2.30;99.90
2327;DHT22;1174;51.588;7.328;2023-03-11T06:20:33;2.30;99.90
2327;DHT22;1174;51.588;7.328;2023-03-11T06:23:03;2.30;99.90
2327;DHT22;1174;51.588;7.328;2023-03-11T06:25:29;2.20;99.90
2327;DHT22;1174;51.588;7.328;2023-03-11T06:27:58;2.20;99.90
2327;DHT22;1174;51.588;7.328;2023-03-11T06:30:25;2.20;99.90
2327;DHT22;1174;51.588;7.328;2023-03-11T06:32:52;2.20;99.90
2327;DHT22;1174;51.588;7.328;2023-03-11T06:35:20;2.30;99.90
2327;DHT22;1174;51.588;7.328;2023-03-11T06:37:49;2.30;99.90
2327;DHT22;1174;51.588;7.328;2023-03-11T06:40:16;2.20;99.90
2327;DHT22;1174;51.588;7.328;2023-03-11T06:42:45;2.20;99.90
2327;DHT22;1174;51.588;7.328;2023-03-11T06:45:13;2.30;99.90
2327;DHT22;1174;51.588;7.328;2023-03-11T06:47:41;2.40;99.90
2327;DHT22;1174;51.588;7.328;2023-03-11T06:50:09;2.50;99.90
2327;DHT22;1174;51.588;7.328;2023-03-11T06:52:36;2.70;99.90
2327;DHT22;1174;51.588;7.328;2023-03-11T06:55:03;2.80;99.90
2327;DHT22;1174;51.588;7.328;2023-03-11T06:57:31;2.90;99.90
2327;DHT22;1174;51.588;7.328;2023-03-11T06:59:59;2.90;99.90
2327;DHT22;1174;51.588;7.328;2023-03-11T07:02:27;2.90;99.90
2327;DHT22;1174;51.588;7.328;2023-03-11T07:04:54;2.90;99.90
2327;DHT22;1174;51.588;7.328;2023-03-11T07:07:21;3.10;99.90
2327;DHT22;1174;51.588;7.328;2023-03-11T07:09:48;3.10;99.90
2327;DHT22;1174;51.588;7.328;2023-03-11T07:12:15;3.20;99.90
2327;DHT22;1174;51.588;7.328;2023-03-11T07:14:42;3.00;99.90
2327;DHT22;1174;51.588;7.328;2023-03-11T07:17:09;2.90;99.90
2327;DHT22;1174;51.588;7.328;2023-03-11T07:19:37;2.80;99.90
2327;DHT22;1174;51.588;7.328;2023-03-11T07:22:05;2.70;99.90
2327;DHT22;1174;51.588;7.328;2023-03-11T07:24:32;2.80;99.90
2327;DHT22;1174;51.588;7.328;2023-03-11T07:26:59;2.90;99.90
2327;DHT22;1174;51.588;7.328;2023-03-11T07:29:26;3.00;99.90
2327;DHT22;1174;51.588;7.328;2023-03-11T07:31:53;3.10;99.90
2327;DHT22;1174;51.588;7.328;2023-03-11T07:34:19;3.10;99.90
2327;DHT22;1174;51.588;7.328;2023-03-11T07:36:48;3.30;99.90
2327;DHT22;1174;51.588;7.328;2023-03-11T07:39:18;3.40;99.90
2327;DHT22;1174;51.588;7.328;2023-03-11T07:41:45;3.40;99.90
2327;DHT22;1174;51.588;7.328;2023-03-11T07:44:14;3.50;99.90
2327;DHT22;1174;51.588;7.328;2023-03-11T07:46:41;3.80;99.90
2327;DHT22;1174;51.588;7.328;2023-03-11T07:49:08;4.30;99.90
2327;DHT22;1174;51.588;7.328;2023-03-11T07:51:37;4.40;99.90
2327;DHT22;1174;51.588;7.328;2023-03-11T07:54:06;4.70;99.90
2327;DHT22;1174;51.588;7.328;2023-03-11T07:56:34;4.70;99.90
2327;DHT22;1174;51.588;7.328;2023-03-11T07:59:02;4.80;99.90
2327;DHT22;1174;51.588;7.328;2023-03-11T08:01:33;4.80;99.90
2327;DHT22;1174;51.588;7.328;2023-03-11T08:04:06;4.90;99.90
2327;DHT22;1174;51.588;7.328;2023-03-11T08:06:35;4.80;99.90
2327;DHT22;1174;51.588;7.328;2023-03-11T08:09:04;4.70;99.90
2327;DHT22;1174;51.588;7.328;2023-03-11T08:11:35;4.80;99.90
2327;DHT22;1174;51.588;7.328;2023-03-11T08:14:02;5.30;99.90
2327;DHT22;1174;51.588;7.328;2023-03-11T08:16:29;5.60;99.90
2327;DHT22;1174;51.588;7.328;2023-03-11T08:18:59;5.60;99.90
2327;DHT22;1174;51.588;7.328;2023-03-11T08:21:28;5.50;99.90
2327;DHT22;1174;51.588;7.328;2023-03-11T08:23:57;5.60;99.90
2327;DHT22;1174;51.588;7.328;2023-03-11T08:26:24;6.10;99.90
2327;DHT22;1174;51.588;7.328;2023-03-11T08:28:53;6.00;99.90
2327;DHT22;1174;51.588;7.328;2023-03-11T08:31:22;5.90;99.90
2327;DHT22;1174;51.588;7.328;2023-03-11T08:33:51;6.00;99.90
2327;DHT22;1174;51.588;7.328;2023-03-11T08:36:19;6.50;99.90
2327;DHT22;1174;51.588;7.328;2023-03-11T08:38:46;7.10;99.90
2327;DHT22;1174;51.588;7.328;2023-03-11T08:41:14;7.60;99.90
2327;DHT22;1174;51.588;7.328;2023-03-11T08:43:41;8.30;99.90
2327;DHT22;1174;51.588;7.328;2023-03-11T08:46:14;8.90;99.90
2327;DHT22;1174;51.588;7.328;2023-03-11T08:48:43;9.80;99.90
2327;DHT22;1174;51.588;7.328;2023-03-11T08:51:10;10.10;99.90
2327;DHT22;1174;51.588;7.328;2023-03-11T08:53:38;9.90;99.90
2327;DHT22;1174;51.588;7.328;2023-03-11T08:56:08;10.20;99.90
2327;DHT22;1174;51.588;7.328;2023-03-11T08:58:34;10.40;99.90
2327;DHT22;1174;51.588;7.328;2023-03-11T09:01:04;10.60;99.90
2327;DHT22;1174;51.588;7.328;2023-03-11T09:03:33;10.60;99.90
2327;DHT22;1174;51.588;7.328;2023-03-11T09:06:02;10.80;99.90
2327;DHT22;1174;51.588;7.328;2023-03-11T09:08:29;10.70;99.90
2327;DHT22;1174;51.588;7.328;2023-03-11T09:10:56;11.10;99.90
2327;DHT22;1174;51.588;7.328;2023-03-11T09:13:23;11.50;99.90
2327;DHT22;1174;51.588;7.328;2023-03-11T09:15:51;11.90;99.90
2327;DHT22;1174;51.588;7.328;2023-03-11T09:18:18;12.60;96.10
2327;DHT22;1174;51.588;7.328;2023-03-11T09:20:46;12.70;96.20
2327;DHT22;1174;51.588;7.328;2023-03-11T09:23:15;12.90;95.80
2327;DHT22;1174;51.588;7.328;2023-03-11T09:25:42;13.50;95.20
2327;DHT22;1174;51.588;7.328;2023-03-11T09:28:09;13.60;94.50
2327;DHT22;1174;51.588;7.328;2023-03-11T09:30:36;13.80;93.40
2327;DHT22;1174;51.588;7.328;2023-03-11T09:33:04;13.80;91.00
2327;DHT22;1174;51.588;7.328;2023-03-11T09:35:31;13.80;89.90
2327;DHT22;1174;51.588;7.328;2023-03-11T09:38:00;14.50;90.80
2327;DHT22;1174;51.588;7.328;2023-03-11T09:40:38;14.40;87.20
2327;DHT22;1174;51.588;7.328;2023-03-11T09:43:14;14.30;88.30
2327;DHT22;1174;51.588;7.328;2023-03-11T09:45:48;14.00;85.70
2327;DHT22;1174;51.588;7.328;2023-03-11T09:48:21;14.50;88.70
2327;DHT22;1174;51.588;7.328;2023-03-11T09:50:54;14.80;78.00
2327;DHT22;1174;51.588;7.328;2023-03-11T09:53:31;15.50;75.00
2327;DHT22;1174;51.588;7.328;2023-03-11T09:56:05;15.50;75.20
2327;DHT22;1174;51.588;7.328;2023-03-11T09:58:37;13.80;70.20
2327;DHT22;1174;51.588;7.328;2023-03-11T10:01:13;12.10;74.50
2327;DHT22;1174;51.588;7.328;2023-03-11T10:03:41;12.20;81.80
2327;DHT22;1174;51.588;7.328;2023-03-11T10:06:15;12.90;79.20
2327;DHT22;1174;51.588;7.328;2023-03-11T10:08:46;13.30;72.20
2327;DHT22;1174;51.588;7.328;2023-03-11T10:14:32;13.60;73.50
2327;DHT22;1174;51.588;7.328;2023-03-11T10:17:10;13.60;71.80
2327;DHT22;1174;51.588;7.328;2023-03-11T10:19:46;14.10;74.20
2327;DHT22;1174;51.588;7.328;2023-03-11T10:22:19;15.00;73.00
2327;DHT22;1174;51.588;7.328;2023-03-11T10:25:03;14.80;71.40
2327;DHT22;1174;51.588;7.328;2023-03-11T10:27:36;14.70;70.20
2327;DHT22;1174;51.588;7.328;2023-03-11T10:30:16;15.90;71.20
2327;DHT22;1174;51.588;7.328;2023-03-11T10:32:48;15.70;67.80
2327;DHT22;1174;51.588;7.328;2023-03-11T10:35:19;13.90;67.50
2327;DHT22;1174;51.588;7.328;2023-03-11T10:37:50;12.10;73.60
2327;DHT22;1174;51.588;7.328;2023-03-11T10:40:25;12.20;76.10
2327;DHT22;1174;51.588;7.328;2023-03-11T10:42:54;12.90;75.50
2327;DHT22;1174;51.588;7.328;2023-03-11T10:45:23;12.50;74.60
2327;DHT22;1174;51.588;7.328;2023-03-11T10:47:51;11.70;74.30
2327;DHT22;1174;51.588;7.328;2023-03-11T10:50:19;11.90;78.70
2327;DHT22;1174;51.588;7.328;2023-03-11T10:53:14;12.70;78.10
2327;DHT22;1174;51.588;7.328;2023-03-11T10:55:47;13.20;71.10
2327;DHT22;1174;51.588;7.328;2023-03-11T10:58:15;13.20;72.00
2327;DHT22;1174;51.588;7.328;2023-03-11T11:00:43;12.50;70.90
2327;DHT22;1174;51.588;7.328;2023-03-11T11:03:20;13.70;72.20
2327;DHT22;1174;51.588;7.328;2023-03-11T11:05:57;14.80;70.00
2327;DHT22;1174;51.588;7.328;2023-03-11T11:08:24;14.50;70.60
2327;DHT22;1174;51.588;7.328;2023-03-11T11:10:54;14.20;69.30
2327;DHT22;1174;51.588;7.328;2023-03-11T11:13:23;14.10;71.40
2327;DHT22;1174;51.588;7.328;2023-03-11T11:15:58;14.30;68.70
2327;DHT22;1174;51.588;7.328;2023-03-11T11:18:27;14.80;68.40
2327;DHT22;1174;51.588;7.328;2023-03-11T11:21:01;15.90;64.10
2327;DHT22;1174;51.588;7.328;2023-03-11T11:23:36;15.70;64.60
2327;DHT22;1174;51.588;7.328;2023-03-11T11:26:13;16.80;63.00
2327;DHT22;1174;51.588;7.328;2023-03-11T11:28:40;16.70;61.30
2327;DHT22;1174;51.588;7.328;2023-03-11T11:31:21;17.10;57.80
2327;DHT22;1174;51.588;7.328;2023-03-11T11:33:50;16.90;61.20
2327;DHT22;1174;51.588;7.328;2023-03-11T11:36:18;16.30;63.20
2327;DHT22;1174;51.588;7.328;2023-03-11T11:38:51;16.10;61.00
2327;DHT22;1174;51.588;7.328;2023-03-11T11:41:21;16.30;60.90
2327;DHT22;1174;51.588;7.328;2023-03-11T11:43:51;17.00;61.70
2327;DHT22;1174;51.588;7.328;2023-03-11T11:46:21;17.60;60.40
2327;DHT22;1174;51.588;7.328;2023-03-11T11:49:08;17.20;56.60
2327;DHT22;1174;51.588;7.328;2023-03-11T11:51:40;15.30;56.20
2327;DHT22;1174;51.588;7.328;2023-03-11T11:54:14;14.70;58.20
2327;DHT22;1174;51.588;7.328;2023-03-11T11:56:44;13.90;58.00
2327;DHT22;1174;51.588;7.328;2023-03-11T11:59:15;13.70;57.20
2327;DHT22;1174;51.588;7.328;2023-03-11T12:01:55;13.00;56.60
2327;DHT22;1174;51.588;7.328;2023-03-11T12:04:34;12.80;57.20
2327;DHT22;1174;51.588;7.328;2023-03-11T12:07:11;13.30;57.90
2327;DHT22;1174;51.588;7.328;2023-03-11T12:09:46;13.60;59.40
2327;DHT22;1174;51.588;7.328;2023-03-11T12:12:24;14.50;57.50
2327;DHT22;1174;51.588;7.328;2023-03-11T12:15:00;15.30;56.10
2327;DHT22;1174;51.588;7.328;2023-03-11T12:17:36;15.90;53.50
2327;DHT22;1174;51.588;7.328;2023-03-11T12:20:07;15.90;51.30
2327;DHT22;1174;51.588;7.328;2023-03-11T12:22:56;16.40;52.60
2327;DHT22;1174;51.588;7.328;2023-03-11T12:25:30;16.30;55.20
2327;DHT22;1174;51.588;7.328;2023-03-11T12:28:11;15.70;56.10
2327;DHT22;1174;51.588;7.328;2023-03-11T12:30:42;15.40;59.00
2327;DHT22;1174;51.588;7.328;2023-03-11T12:33:14;14.30;55.70
2327;DHT22;1174;51.588;7.328;2023-03-11T12:35:48;14.60;58.10
2327;DHT22;1174;51.588;7.328;2023-03-11T12:38:22;15.00;57.20
2327;DHT22;1174;51.588;7.328;2023-03-11T12:41:02;15.60;56.50
2327;DHT22;1174;51.588;7.328;2023-03-11T12:53:03;15.70;54.10
2327;DHT22;1174;51.588;7.328;2023-03-11T12:55:45;15.20;51.10
2327;DHT22;1174;51.588;7.328;2023-03-11T12:58:52;15.10;50.40
2327;DHT22;1174;51.588;7.328;2023-03-11T13:01:41;16.80;52.50
2327;DHT22;1174;51.588;7.328;2023-03-11T13:04:38;18.10;53.00
2327;DHT22;1174;51.588;7.328;2023-03-11T13:10:34;18.90;49.70
2327;DHT22;1174;51.588;7.328;2023-03-11T13:13:34;18.50;50.30
2327;DHT22;1174;51.588;7.328;2023-03-11T13:16:35;18.60;50.40
2327;DHT22;1174;51.588;7.328;2023-03-11T13:19:35;18.20;50.30
2327;DHT22;1174;51.588;7.328;2023-03-11T13:22:04;17.40;52.80
2327;DHT22;1174;51.588;7.328;2023-03-11T13:24:48;16.60;53.40
2327;DHT22;1174;51.588;7.328;2023-03-11T13:27:31;15.70;56.00
2327;DHT22;1174;51.588;7.328;2023-03-11T13:30:06;16.50;54.10
2327;DHT22;1174;51.588;7.328;2023-03-11T13:33:06;16.30;53.90
2327;DHT22;1174;51.588;7.328;2023-03-11T13:35:57;17.20;54.90
2327;DHT22;1174;51.588;7.328;2023-03-11T13:41:53;17.00;51.90
2327;DHT22;1174;51.588;7.328;2023-03-11T13:44:26;17.70;51.90
2327;DHT22;1174;51.588;7.328;2023-03-11T13:46:58;17.60;51.40
2327;DHT22;1174;51.588;7.328;2023-03-11T13:49:34;18.20;50.00
2327;DHT22;1174;51.588;7.328;2023-03-11T13:52:07;17.60;49.90
2327;DHT22;1174;51.588;7.328;2023-03-11T13:54:40;17.90;49.60
2327;DHT22;1174;51.588;7.328;2023-03-11T13:57:20;17.60;48.70
2327;DHT22;1174;51.588;7.328;2023-03-11T13:59:52;16.70;50.40
2327;DHT22;1174;51.588;7.328;2023-03-11T14:02:22;17.40;48.80
2327;DHT22;1174;51.588;7.328;2023-03-11T14:04:52;18.70;47.40
2327;DHT22;1174;51.588;7.328;2023-03-11T14:07:24;19.10;47.70
2327;DHT22;1174;51.588;7.328;2023-03-11T14:09:51;20.00;49.20
2327;DHT22;1174;51.588;7.328;2023-03-11T14:12:19;18.90;46.50
2327;DHT22;1174;51.588;7.328;2023-03-11T14:14:53;18.20;47.50
2327;DHT22;1174;51.588;7.328;2023-03-11T14:17:21;18.60;46.40
2327;DHT22;1174;51.588;7.328;2023-03-11T14:20:03;18.60;45.20
2327;DHT22;1174;51.588;7.328;2023-03-11T14:22:32;18.90;43.80
2327;DHT22;1174;51.588;7.328;2023-03-11T14:25:03;18.50;44.40
2327;DHT22;1174;51.588;7.328;2023-03-11T14:27:31;19.00;44.40
2327;DHT22;1174;51.588;7.328;2023-03-11T14:30:00;19.40;46.20
2327;DHT22;1174;51.588;7.328;2023-03-11T14:32:29;19.70;45.00
2327;DHT22;1174;51.588;7.328;2023-03-11T14:34:59;18.70;47.00
2327;DHT22;1174;51.588;7.328;2023-03-11T14:37:31;17.80;48.10
2327;DHT22;1174;51.588;7.328;2023-03-11T14:39:58;16.20;46.80
2327;DHT22;1174;51.588;7.328;2023-03-11T14:42:27;14.90;48.20
2327;DHT22;1174;51.588;7.328;2023-03-11T14:45:02;14.20;47.70
2327;DHT22;1174;51.588;7.328;2023-03-11T14:47:34;14.40;47.80
2327;DHT22;1174;51.588;7.328;2023-03-11T14:50:04;15.30;47.00
2327;DHT22;1174;51.588;7.328;2023-03-11T14:52:35;15.60;46.50
2327;DHT22;1174;51.588;7.328;2023-03-11T14:55:07;15.60;46.20
2327;DHT22;1174;51.588;7.328;2023-03-11T14:57:39;15.40;46.60
2327;DHT22;1174;51.588;7.328;2023-03-11T15:00:14;15.20;46.70
2327;DHT22;1174;51.588;7.328;2023-03-11T15:02:50;13.50;48.40
2327;DHT22;1174;51.588;7.328;2023-03-11T15:05:20;12.20;50.50
2327;DHT22;1174;51.588;7.328;2023-03-11T15:07:50;11.60;51.90
2327;DHT22;1174;51.588;7.328;2023-03-11T15:10:24;11.20;52.80
2327;DHT22;1174;51.588;7.328;2023-03-11T15:13:04;11.30;53.20
2327;DHT22;1174;51.588;7.328;2023-03-11T15:15:32;11.70;54.70
2327;DHT22;1174;51.588;7.328;2023-03-11T15:18:00;11.70;53.10
2327;DHT22;1174;51.588;7.328;2023-03-11T15:20:31;12.30;52.80
2327;DHT22;1174;51.588;7.328;2023-03-11T15:23:05;12.10;51.60
2327;DHT22;1174;51.588;7.328;2023-03-11T15:25:48;12.50;52.20
2327;DHT22;1174;51.588;7.328;2023-03-11T15:28:21;12.80;51.80
2327;DHT22;1174;51.588;7.328;2023-03-11T15:31:23;12.40;52.00
2327;DHT22;1174;51.588;7.328;2023-03-11T15:34:07;12.20;51.70
2327;DHT22;1174;51.588;7.328;2023-03-11T15:36:55;12.40;51.60
2327;DHT22;1174;51.588;7.328;2023-03-11T15:39:43;11.80;51.90
2327;DHT22;1174;51.588;7.328;2023-03-11T15:42:14;11.60;53.50
2327;DHT22;1174;51.588;7.328;2023-03-11T15:45:01;11.50;53.30
2327;DHT22;1174;51.588;7.328;2023-03-11T15:47:30;11.10;53.30
2327;DHT22;1174;51.588;7.328;2023-03-11T15:50:16;10.70;55.60
2327;DHT22;1174;51.588;7.328;2023-03-11T15:53:00;10.30;55.40
2327;DHT22;1174;51.588;7.328;2023-03-11T15:55:29;10.30;56.40
2327;DHT22;1174;51.588;7.328;2023-03-11T15:58:02;9.90;56.50
2327;DHT22;1174;51.588;7.328;2023-03-11T16:00:31;9.70;58.00
2327;DHT22;1174;51.588;7.328;2023-03-11T16:03:00;9.70;59.00
2327;DHT22;1174;51.588;7.328;2023-03-11T16:05:27;9.60;58.60
2327;DHT22;1174;51.588;7.328;2023-03-11T16:07:54;9.60;59.40
2327;DHT22;1174;51.588;7.328;2023-03-11T16:10:23;9.40;58.30
2327;DHT22;1174;51.588;7.328;2023-03-11T16:12:53;9.20;59.70
2327;DHT22;1174;51.588;7.328;2023-03-11T16:15:22;9.20;60.00
2327;DHT22;1174;51.588;7.328;2023-03-11T16:17:54;9.20;59.60
2327;DHT22;1174;51.588;7.328;2023-03-11T16:20:24;9.20;60.90
2327;DHT22;1174;51.588;7.328;2023-03-11T16:22:53;9.20;60.80
2327;DHT22;1174;51.588;7.328;2023-03-11T16:25:22;9.10;59.60
2327;DHT22;1174;51.588;7.328;2023-03-11T16:27:52;9.00;59.90
2327;DHT22;1174;51.588;7.328;2023-03-11T16:30:22;8.90;61.40
2327;DHT22;1174;51.588;7.328;2023-03-11T16:32:49;9.00;61.60
2327;DHT22;1174;51.588;7.328;2023-03-11T16:35:17;9.00;60.00
2327;DHT22;1174;51.588;7.328;2023-03-11T16:37:46;8.70;60.70
2327;DHT22;1174;51.588;7.328;2023-03-11T16:40:15;8.60;60.60
2327;DHT22;1174;51.588;7.328;2023-03-11T16:42:42;8.60;61.90
2327;DHT22;1174;51.588;7.328;2023-03-11T16:45:10;8.60;62.60
2327;DHT22;1174;51.588;7.328;2023-03-11T16:47:37;8.60;63.60
2327;DHT22;1174;51.588;7.328;2023-03-11T16:50:05;8.60;64.00
2327;DHT22;1174;51.588;7.328;2023-03-11T16:52:37;8.60;64.50